createdAt,value
2022-10-05T00:01:22.443Z,101632.53
2022-10-05T00:03:49.082Z,101622.84
2022-10-05T00:06:15.792Z,101612.25
2022-10-05T00:08:43.611Z,101608.84
2022-10-05T00:11:13.712Z,101623.47
2022-10-05T00:13:40.992Z,101629.03
2022-10-05T00:16:14.818Z,101619.19
2022-10-05T00:18:42.595Z,101622.19
2022-10-05T00:21:18.305Z,101625.88
2022-10-05T00:23:46.388Z,101632.41
2022-10-05T00:26:18.910Z,101620.75
2022-10-05T00:28:45.337Z,101614.59
2022-10-05T00:31:17.043Z,101619.28
2022-10-05T00:33:43.510Z,101617.56
2022-10-05T00:36:10.112Z,101615.84
2022-10-05T00:38:36.764Z,101599.88
2022-10-05T00:41:10.262Z,101598.16
2022-10-05T00:43:54.423Z,101608.25
2022-10-05T00:46:25.175Z,101597.56
2022-10-05T00:49:02.586Z,101582.31
2022-10-05T00:51:31.660Z,101585.16
2022-10-05T00:54:18.354Z,101583.47
2022-10-05T00:57:04.738Z,101581.63
2022-10-05T00:59:43.665Z,101586.16
2022-10-05T01:02:15.223Z,101590.72
2022-10-05T01:04:48.148Z,101594.28
2022-10-05T01:07:26.971Z,101590.56
2022-10-05T01:10:00.477Z,101581.63
2022-10-05T01:12:32.113Z,101582.44
2022-10-05T01:15:05.286Z,101569.66
2022-10-05T01:17:39.882Z,101565.97
2022-10-05T01:20:16.902Z,101564.97
2022-10-05T01:23:05.757Z,101570.38
2022-10-05T01:25:41.121Z,101577.66
2022-10-05T01:28:13.094Z,101568.69
2022-10-05T01:30:47.583Z,101571.38
2022-10-05T01:33:18.767Z,101566.97
2022-10-05T01:35:55.993Z,101566.22
2022-10-05T01:38:36.654Z,101565.50
2022-10-05T01:41:13.575Z,101560.09
2022-10-05T01:43:46.656Z,101563.66
2022-10-05T01:46:24.485Z,101563.78
2022-10-05T01:49:02.071Z,101576.59
2022-10-05T01:51:37.789Z,101575.88
2022-10-05T01:54:18.440Z,101585.94
2022-10-05T01:56:53.204Z,101587.19
2022-10-05T01:59:30.496Z,101585.63
2022-10-05T02:02:01.138Z,101589.47
2022-10-05T02:05:00.347Z,101582.53
2022-10-05T02:07:23.747Z,101592.66
2022-10-05T02:09:55.556Z,101592.06
2022-10-05T02:12:26.285Z,101586.78
2022-10-05T02:14:58.188Z,101590.59
2022-10-05T02:17:31.680Z,101589.00
2022-10-05T02:19:59.954Z,101589.16
2022-10-05T02:22:30.960Z,101577.59
2022-10-05T02:25:00.061Z,101584.13
2022-10-05T02:27:31.302Z,101587.94
2022-10-05T02:30:02.701Z,101590.66
2022-10-05T02:32:37.068Z,101593.50
2022-10-05T02:35:12.640Z,101586.63
2022-10-05T02:37:47.906Z,101589.47
2022-10-05T02:40:25.376Z,101583.47
2022-10-05T02:43:00.324Z,101584.44
2022-10-05T02:45:35.522Z,101592.66
2022-10-05T02:48:11.163Z,101587.41
2022-10-05T02:50:45.075Z,101577.56
2022-10-05T02:53:21.082Z,101578.56
2022-10-05T02:55:57.462Z,101580.53
2022-10-05T02:58:27.660Z,101568.00
2022-10-05T03:01:02.808Z,101573.41
2022-10-05T03:03:35.459Z,101585.94
2022-10-05T03:06:05.124Z,101573.25
2022-10-05T03:08:40.543Z,101563.47
2022-10-05T03:11:14.912Z,101564.34
2022-10-05T03:13:48.299Z,101559.75
2022-10-05T03:16:35.753Z,101556.94
2022-10-05T03:19:16.015Z,101551.53
2022-10-05T03:21:53.258Z,101545.16
2022-10-05T03:24:40.027Z,101541.47
2022-10-05T03:27:17.269Z,101539.75
2022-10-05T03:29:50.712Z,101542.31
2022-10-05T03:32:25.178Z,101540.44
2022-10-05T03:34:56.818Z,101533.09
2022-10-05T03:37:32.315Z,101531.25
2022-10-05T03:40:06.177Z,101530.97
2022-10-05T03:42:52.500Z,101528.16
2022-10-05T03:45:25.669Z,101528.00
2022-10-05T03:48:03.551Z,101521.63
2022-10-05T03:50:44.494Z,101512.41
2022-10-05T03:53:17.859Z,101507.00
2022-10-05T03:55:49.792Z,101514.84
2022-10-05T03:58:22.124Z,101511.28
2022-10-05T04:00:53.549Z,101513.97
2022-10-05T04:03:27.831Z,101504.88
2022-10-05T04:05:57.948Z,101516.41
2022-10-05T04:08:31.078Z,101499.31
2022-10-05T04:11:03.394Z,101499.31
2022-10-05T04:13:35.605Z,101506.34
2022-10-05T04:16:08.639Z,101516.16
2022-10-05T04:18:39.946Z,101510.75
2022-10-05T04:21:11.355Z,101514.31
2022-10-05T04:23:47.999Z,101502.50
2022-10-05T04:26:18.520Z,101499.78
2022-10-05T04:28:52.480Z,101513.19
2022-10-05T04:31:33.298Z,101511.34
2022-10-05T04:34:09.752Z,101523.88
2022-10-05T04:36:45.662Z,101514.75
2022-10-05T04:39:23.617Z,101517.34
2022-10-05T04:42:00.027Z,101528.16
2022-10-05T04:44:44.691Z,101512.78
2022-10-05T04:47:27.292Z,101515.38
2022-10-05T04:50:15.405Z,101499.97
2022-10-05T04:52:52.284Z,101507.13
2022-10-05T04:55:28.051Z,101498.13
2022-10-05T04:58:05.559Z,101496.28
2022-10-05T05:00:44.269Z,101499.75
2022-10-05T05:03:31.243Z,101499.59
2022-10-05T05:06:17.680Z,101511.25
2022-10-05T05:09:03.766Z,101513.75
2022-10-05T05:11:40.227Z,101511.88
2022-10-05T05:14:50.428Z,101522.56
2022-10-05T05:17:31.017Z,101517.16
2022-10-05T05:20:07.963Z,101508.06
2022-10-05T05:22:45.000Z,101501.81
2022-10-05T05:25:30.707Z,101498.13
2022-10-05T05:28:01.096Z,101493.56
2022-10-05T05:30:37.131Z,101483.59
2022-10-05T05:33:17.811Z,101486.16
2022-10-05T05:36:08.714Z,101478.91
2022-10-05T05:38:40.857Z,101480.47
2022-10-05T05:41:10.218Z,101478.63
2022-10-05T05:43:51.724Z,101493.75
2022-10-05T05:46:38.780Z,101494.44
2022-10-05T05:49:17.841Z,101485.34
2022-10-05T05:51:50.185Z,101485.06
2022-10-05T05:54:31.299Z,101487.66
2022-10-05T05:57:06.407Z,101485.69
2022-10-05T05:59:45.388Z,101486.28
2022-10-05T06:02:16.626Z,101480.56
2022-10-05T06:04:48.346Z,101493.69
2022-10-05T06:07:18.861Z,101487.16
2022-10-05T06:09:52.048Z,101483.22
2022-10-05T06:12:22.481Z,101483.63
2022-10-05T06:14:52.858Z,101483.22
2022-10-05T06:17:26.264Z,101497.19
2022-10-05T06:19:55.623Z,101493.09
2022-10-05T06:22:32.498Z,101494.25
2022-10-05T06:25:16.758Z,101488.13
2022-10-05T06:28:00.100Z,101487.47
2022-10-05T06:30:33.442Z,101495.00
2022-10-05T06:33:12.004Z,101500.44
2022-10-05T06:35:53.310Z,101496.34
2022-10-05T06:38:49.363Z,101509.03
2022-10-05T06:41:24.096Z,101499.22
2022-10-05T06:43:58.369Z,101496.78
2022-10-05T06:46:29.660Z,101496.09
2022-10-05T06:49:10.953Z,101490.81
2022-10-05T06:51:47.997Z,101482.94
2022-10-05T06:54:26.787Z,101497.69
2022-10-05T06:57:01.986Z,101492.66
2022-10-05T06:59:35.534Z,101494.50
2022-10-05T07:02:06.215Z,101499.38
2022-10-05T07:04:49.515Z,101503.94
2022-10-05T07:07:28.526Z,101498.75
2022-10-05T07:10:15.235Z,101500.75
2022-10-05T07:12:58.699Z,101492.75
2022-10-05T07:15:38.663Z,101498.41
2022-10-05T07:18:30.468Z,101498.41
2022-10-05T07:21:03.911Z,101500.22
2022-10-05T07:23:45.094Z,101492.91
2022-10-05T07:26:18.334Z,101504.56
2022-10-05T07:28:50.655Z,101501.66
2022-10-05T07:31:26.168Z,101519.47
2022-10-05T07:34:01.001Z,101515.53
2022-10-05T07:36:34.295Z,101510.06
2022-10-05T07:39:06.715Z,101516.31
2022-10-05T07:41:41.242Z,101502.94
2022-10-05T07:44:15.852Z,101516.63
2022-10-05T07:46:50.058Z,101509.59
2022-10-05T07:49:26.361Z,101513.22
2022-10-05T07:51:56.552Z,101521.47
2022-10-05T07:54:28.550Z,101519.69
2022-10-05T07:57:03.884Z,101507.16
2022-10-05T07:59:38.192Z,101508.06
2022-10-05T08:02:14.689Z,101510.00
2022-10-05T08:04:52.639Z,101490.84
2022-10-05T08:07:19.460Z,101487.91
2022-10-05T08:09:53.269Z,101487.09
2022-10-05T08:12:28.440Z,101488.13
2022-10-05T08:15:00.071Z,101491.81
2022-10-05T08:17:39.073Z,101485.56
2022-10-05T08:20:18.932Z,101474.72
2022-10-05T08:22:50.519Z,101471.16
2022-10-05T08:25:22.185Z,101465.41
2022-10-05T08:27:52.898Z,101458.47
2022-10-05T08:30:20.869Z,101451.31
2022-10-05T08:32:52.918Z,101460.56
2022-10-05T08:35:28.659Z,101458.03
2022-10-05T08:37:56.715Z,101460.75
2022-10-05T08:41:05.941Z,101448.03
2022-10-05T08:43:51.644Z,101446.19
2022-10-05T08:46:34.308Z,101443.47
2022-10-05T08:49:35.158Z,101443.28
2022-10-05T08:52:22.771Z,101433.09
2022-10-05T08:55:16.116Z,101431.22
2022-10-05T08:58:23.924Z,101438.22
2022-10-05T09:00:59.532Z,101430.38
2022-10-05T09:03:51.353Z,101428.28
2022-10-05T09:06:52.318Z,101428.09
2022-10-05T09:09:34.355Z,101434.59
2022-10-05T09:12:21.467Z,101432.16
2022-10-05T09:15:20.499Z,101433.38
2022-10-05T09:18:07.898Z,101441.19
2022-10-05T09:20:47.829Z,101429.94
2022-10-05T09:23:25.889Z,101427.53
2022-10-05T09:25:57.680Z,101419.84
2022-10-05T09:28:29.137Z,101417.59
2022-10-05T09:31:12.684Z,101425.09
2022-10-05T09:34:08.533Z,101419.94
2022-10-05T09:37:27.035Z,101417.22
2022-10-05T09:40:26.853Z,101417.69
2022-10-05T09:43:10.861Z,101410.94
2022-10-05T09:45:57.286Z,101409.88
2022-10-05T09:48:51.892Z,101402.69
2022-10-05T09:52:04.003Z,101402.13
2022-10-05T09:54:59.453Z,101396.78
2022-10-05T09:57:53.342Z,101390.13
2022-10-05T10:00:23.340Z,101396.06
2022-10-05T10:03:41.966Z,101380.25
2022-10-05T10:06:30.689Z,101385.13
2022-10-05T10:09:24.505Z,101383.66
2022-10-05T10:12:22.558Z,101394.88
2022-10-05T10:15:35.094Z,101388.38
2022-10-05T10:18:22.279Z,101393.69
2022-10-05T10:21:02.045Z,101403.50
2022-10-05T10:23:54.408Z,101403.63
2022-10-05T10:26:54.644Z,101405.81
2022-10-05T10:29:58.150Z,101403.91
2022-10-05T10:33:05.827Z,101403.72
2022-10-05T10:35:36.254Z,101406.09
2022-10-05T10:38:29.631Z,101407.78
2022-10-05T10:41:20.945Z,101402.88
2022-10-05T10:44:23.854Z,101393.53
2022-10-05T10:47:15.432Z,101390.84
2022-10-05T10:50:05.371Z,101385.31
2022-10-05T10:52:48.234Z,101389.84
2022-10-05T10:55:30.075Z,101385.28
2022-10-05T10:58:32.282Z,101377.69
2022-10-05T11:01:11.650Z,101371.56
2022-10-05T11:04:02.632Z,101369.22
2022-10-05T11:07:10.790Z,101385.38
2022-10-05T11:09:59.218Z,101372.97
2022-10-05T11:13:02.486Z,101362.25
2022-10-05T11:15:59.834Z,101358.28
2022-10-05T11:18:45.422Z,101358.31
2022-10-05T11:21:24.221Z,101360.72
2022-10-05T11:24:33.467Z,101363.91
2022-10-05T11:27:30.726Z,101355.69
2022-10-05T11:30:31.886Z,101358.25
2022-10-05T11:33:31.029Z,101358.06
2022-10-05T11:36:33.513Z,101347.69
2022-10-05T11:39:20.314Z,101345.81
2022-10-05T11:42:23.963Z,101346.00
2022-10-05T11:45:24.912Z,101342.22
2022-10-05T11:48:19.322Z,101335.94
2022-10-05T11:50:57.775Z,101333.00
2022-10-05T11:53:29.423Z,101323.34
2022-10-05T11:56:06.311Z,101321.53
2022-10-05T11:58:41.805Z,101312.13
2022-10-05T12:01:17.973Z,101316.44
2022-10-05T12:03:55.019Z,101313.75
2022-10-05T12:06:53.516Z,101304.50
2022-10-05T12:09:38.553Z,101305.16
2022-10-05T12:12:14.344Z,101302.66
2022-10-05T12:14:52.519Z,101307.97
2022-10-05T12:17:25.758Z,101303.13
2022-10-05T12:19:58.763Z,101298.03
2022-10-05T12:22:31.535Z,101294.66
2022-10-05T12:25:17.789Z,101292.13
2022-10-05T12:27:47.267Z,101292.56
2022-10-05T12:30:18.880Z,101287.25
2022-10-05T12:33:00.886Z,101284.31
2022-10-05T12:35:47.838Z,101286.63
2022-10-05T12:38:22.972Z,101275.19
2022-10-05T12:40:56.642Z,101280.25
2022-10-05T12:43:32.525Z,101283.66
2022-10-05T12:46:11.754Z,101278.16
2022-10-05T12:48:53.747Z,101276.00
2022-10-05T12:51:29.115Z,101276.66
2022-10-05T12:54:01.161Z,101268.81
2022-10-05T12:56:42.131Z,101269.22
2022-10-05T12:59:17.694Z,101269.22
2022-10-05T13:01:53.896Z,101259.47
2022-10-05T13:04:31.690Z,101253.31
2022-10-05T13:07:13.526Z,101256.06
2022-10-05T13:09:48.729Z,101260.72
2022-10-05T13:12:23.323Z,101263.91
2022-10-05T13:14:59.743Z,101253.94
2022-10-05T13:17:36.930Z,101258.19
2022-10-05T13:20:12.174Z,101265.16
2022-10-05T13:22:43.378Z,101263.66
2022-10-05T13:25:27.383Z,101263.66
2022-10-05T13:28:09.131Z,101259.66
2022-10-05T13:30:36.771Z,101260.25
2022-10-05T13:33:10.566Z,101255.59
2022-10-05T13:35:44.674Z,101257.75
2022-10-05T13:38:29.545Z,101257.75
2022-10-05T13:41:05.338Z,101255.63
2022-10-05T13:43:40.976Z,101251.19
2022-10-05T13:46:17.473Z,101243.78
2022-10-05T13:48:59.254Z,101242.53
2022-10-05T13:51:34.257Z,101245.06
2022-10-05T13:54:05.251Z,101243.38
2022-10-05T13:56:34.597Z,101239.13
2022-10-05T13:59:13.727Z,101239.13
2022-10-05T14:01:43.792Z,101244.03
2022-10-05T14:04:17.485Z,101237.00
2022-10-05T14:06:44.904Z,101231.94
2022-10-05T14:09:26.152Z,101235.34
2022-10-05T14:12:05.716Z,101234.09
2022-10-05T14:14:42.142Z,101217.16
2022-10-05T14:17:14.563Z,101220.53
2022-10-05T14:19:45.600Z,101220.53
2022-10-05T14:22:14.402Z,101223.50
2022-10-05T14:24:50.037Z,101219.50
2022-10-05T14:27:22.844Z,101212.72
2022-10-05T14:29:58.059Z,101216.94
2022-10-05T14:32:26.154Z,101203.59
2022-10-05T14:35:03.077Z,101200.25
2022-10-05T14:37:33.012Z,101195.09
2022-10-05T14:40:20.440Z,101186.44
2022-10-05T14:42:47.523Z,101197.22
2022-10-05T14:45:18.042Z,101196.19
2022-10-05T14:47:49.041Z,101200.81
2022-10-05T14:50:19.713Z,101200.19
2022-10-05T14:53:00.426Z,101192.13
2022-10-05T14:55:46.681Z,101197.66
2022-10-05T14:58:37.520Z,101194.44
2022-10-05T15:01:16.434Z,101198.06
2022-10-05T15:03:50.659Z,101194.22
2022-10-05T15:06:24.037Z,101193.78
2022-10-05T15:08:58.993Z,101189.97
2022-10-05T15:11:35.994Z,101190.16
2022-10-05T15:14:12.164Z,101189.91
2022-10-05T15:16:39.092Z,101187.78
2022-10-05T15:19:15.544Z,101186.50
2022-10-05T15:22:00.017Z,101185.22
2022-10-05T15:24:33.585Z,101190.72
2022-10-05T15:27:03.325Z,101189.41
2022-10-05T15:29:42.258Z,101188.34
2022-10-05T15:32:24.629Z,101191.91
2022-10-05T15:35:02.666Z,101191.03
2022-10-05T15:37:40.097Z,101194.81
2022-10-05T15:40:15.335Z,101195.59
2022-10-05T15:42:41.738Z,101189.03
2022-10-05T15:45:18.353Z,101197.22
2022-10-05T15:47:51.578Z,101191.91
2022-10-05T15:50:24.075Z,101188.06
2022-10-05T15:52:56.479Z,101187.97
2022-10-05T15:55:42.057Z,101190.03
2022-10-05T15:58:24.919Z,101184.72
2022-10-05T16:00:57.275Z,101184.88
2022-10-05T16:03:33.426Z,101181.22
2022-10-05T16:06:06.681Z,101185.16
2022-10-05T16:08:50.309Z,101175.56
2022-10-05T16:11:32.369Z,101183.94
2022-10-05T16:14:09.865Z,101172.47
2022-10-05T16:16:48.841Z,101178.31
2022-10-05T16:19:21.522Z,101171.41
2022-10-05T16:21:57.885Z,101167.75
2022-10-05T16:24:46.756Z,101169.97
2022-10-05T16:27:20.910Z,101169.41
2022-10-05T16:29:55.175Z,101174.84
2022-10-05T16:32:27.239Z,101171.16
2022-10-05T16:35:06.869Z,101167.50
2022-10-05T16:37:41.168Z,101161.47
2022-10-05T16:40:17.260Z,101165.19
2022-10-05T16:43:02.305Z,101171.81
2022-10-05T16:45:45.639Z,101167.47
2022-10-05T16:48:15.096Z,101178.69
2022-10-05T16:50:57.513Z,101171.41
2022-10-05T16:53:31.745Z,101175.97
2022-10-05T16:56:03.877Z,101176.06
2022-10-05T16:58:43.286Z,101186.03
2022-10-05T17:01:22.669Z,101185.47
2022-10-05T17:04:03.024Z,101180.09
2022-10-05T17:06:58.310Z,101180.34
2022-10-05T17:09:44.616Z,101179.59
2022-10-05T17:12:33.378Z,101186.81
2022-10-05T17:15:18.445Z,101181.41
2022-10-05T17:18:11.088Z,101194.13
2022-10-05T17:20:57.759Z,101188.91
2022-10-05T17:23:38.756Z,101193.38
2022-10-05T17:26:27.645Z,101194.47
2022-10-05T17:29:07.804Z,101197.25
2022-10-05T17:32:01.456Z,101209.25
2022-10-05T17:34:29.872Z,101198.19
2022-10-05T17:36:58.262Z,101199.09
2022-10-05T17:39:47.489Z,101200.84
2022-10-05T17:42:45.717Z,101202.78
2022-10-05T17:45:50.632Z,101192.06
2022-10-05T17:48:42.734Z,101187.50
2022-10-05T17:51:17.441Z,101192.16
2022-10-05T17:53:47.716Z,101196.59
2022-10-05T17:56:14.210Z,101197.31
2022-10-05T17:59:02.268Z,101195.41
2022-10-05T18:01:32.377Z,101190.84
2022-10-05T18:04:37.557Z,101189.00
2022-10-05T18:07:14.766Z,101195.16
2022-10-05T18:09:58.311Z,101193.28
2022-10-05T18:12:41.691Z,101191.25
2022-10-05T18:15:44.692Z,101191.28
2022-10-05T18:18:47.693Z,101187.34
2022-10-05T18:21:37.734Z,101189.94
2022-10-05T18:24:33.133Z,101186.00
2022-10-05T18:27:15.392Z,101187.56
2022-10-05T18:29:56.516Z,101187.22
2022-10-05T18:32:34.315Z,101186.88
2022-10-05T18:35:07.721Z,101183.97
2022-10-05T18:37:47.477Z,101181.75
2022-10-05T18:40:26.744Z,101179.53
2022-10-05T18:43:03.882Z,101178.38
2022-10-05T18:45:37.636Z,101187.91
2022-10-05T18:48:21.267Z,101182.97
2022-10-05T18:50:55.774Z,101178.19
2022-10-05T18:53:31.813Z,101175.78
2022-10-05T18:56:03.674Z,101186.31
2022-10-05T18:58:36.944Z,101189.53
2022-10-05T19:01:24.775Z,101186.31
2022-10-05T19:04:02.487Z,101190.38
2022-10-05T19:06:32.864Z,101193.41
2022-10-05T19:09:10.163Z,101198.34
2022-10-05T19:11:43.099Z,101198.84
2022-10-05T19:14:21.483Z,101194.59
2022-10-05T19:17:06.664Z,101202.06
2022-10-05T19:19:52.828Z,101204.97
2022-10-05T19:22:32.778Z,101214.13
2022-10-05T19:25:22.160Z,101220.59
2022-10-05T19:27:59.977Z,101226.03
2022-10-05T19:30:30.541Z,101217.88
2022-10-05T19:33:13.529Z,101234.19
2022-10-05T19:35:53.462Z,101226.72
2022-10-05T19:38:29.111Z,101227.25
2022-10-05T19:41:04.999Z,101230.63
2022-10-05T19:43:43.638Z,101232.34
2022-10-05T19:46:20.217Z,101238.31
2022-10-05T19:48:49.543Z,101241.72
2022-10-05T19:51:27.914Z,101255.19
2022-10-05T19:53:56.070Z,101253.28
2022-10-05T19:56:25.983Z,101250.56
2022-10-05T19:58:53.572Z,101258.56
2022-10-05T20:01:25.969Z,101258.22
2022-10-05T20:03:53.536Z,101254.50
2022-10-05T20:06:20.986Z,101276.13
2022-10-05T20:08:50.006Z,101257.94
2022-10-05T20:11:18.110Z,101265.03
2022-10-05T20:14:07.445Z,101264.75
2022-10-05T20:16:35.046Z,101271.03
2022-10-05T20:19:02.094Z,101272.56
2022-10-05T20:21:39.442Z,101279.56
2022-10-05T20:24:07.621Z,101286.88
2022-10-05T20:26:41.394Z,101290.44
2022-10-05T20:29:09.827Z,101291.28
2022-10-05T20:31:36.407Z,101297.56
2022-10-05T20:34:02.892Z,101296.72
2022-10-05T20:36:29.350Z,101290.25
2022-10-05T20:38:55.829Z,101298.44
2022-10-05T20:41:22.336Z,101303.88
2022-10-05T20:43:48.808Z,101311.03
2022-10-05T20:46:16.653Z,101311.88
2022-10-05T20:48:43.433Z,101310.91
2022-10-05T20:51:09.880Z,101310.72
2022-10-05T20:53:36.293Z,101314.31
2022-10-05T20:56:02.737Z,101322.47
2022-10-05T20:58:29.699Z,101328.78
2022-10-05T21:00:56.594Z,101326.91
2022-10-05T21:03:24.446Z,101322.47
2022-10-05T21:05:50.905Z,101325.03
2022-10-05T21:08:17.314Z,101329.63
2022-10-05T21:10:43.951Z,101328.63
2022-10-05T21:13:10.502Z,101323.00
2022-10-05T21:15:36.974Z,101331.00
2022-10-05T21:18:03.513Z,101319.78
2022-10-05T21:20:31.293Z,101332.22
2022-10-05T21:22:57.751Z,101335.63
2022-10-05T21:25:24.279Z,101332.75
2022-10-05T21:27:50.742Z,101338.84
2022-10-05T21:30:17.419Z,101344.84
2022-10-05T21:32:44.842Z,101337.34
2022-10-05T21:35:12.565Z,101337.19
2022-10-05T21:37:40.381Z,101339.91
2022-10-05T21:40:07.459Z,101342.44
2022-10-05T21:42:34.021Z,101347.06
2022-10-05T21:45:00.490Z,101348.75
2022-10-05T21:47:26.969Z,101343.31
2022-10-05T21:49:53.920Z,101348.75
2022-10-05T21:52:20.956Z,101347.91
2022-10-05T21:54:49.146Z,101346.03
2022-10-05T21:57:15.859Z,101346.88
2022-10-05T21:59:43.120Z,101352.34
2022-10-05T22:02:09.697Z,101349.59
2022-10-05T22:04:36.129Z,101354.06
2022-10-05T22:07:09.779Z,101344.00
2022-10-05T22:09:36.221Z,101349.59
2022-10-05T22:12:04.371Z,101347.91
2022-10-05T22:14:30.829Z,101350.81
2022-10-05T22:16:57.301Z,101352.53
2022-10-05T22:19:23.776Z,101349.09
2022-10-05T22:21:50.496Z,101351.81
2022-10-05T22:24:16.937Z,101357.13
2022-10-05T22:26:47.733Z,101364.44
2022-10-05T22:29:16.706Z,101369.16
2022-10-05T22:31:44.620Z,101370.38
2022-10-05T22:34:11.113Z,101369.50
2022-10-05T22:36:37.648Z,101368.66
2022-10-05T22:39:04.160Z,101364.41
2022-10-05T22:41:30.678Z,101370.00
2022-10-05T22:43:57.332Z,101370.16
2022-10-05T22:46:25.156Z,101379.38
2022-10-05T22:48:51.693Z,101374.06
2022-10-05T22:51:18.116Z,101370.50
2022-10-05T22:53:44.572Z,101380.53
2022-10-05T22:56:12.886Z,101379.88
2022-10-05T22:58:39.918Z,101390.75
2022-10-05T23:01:08.203Z,101382.88
2022-10-05T23:03:36.222Z,101389.38
2022-10-05T23:06:04.513Z,101384.09
2022-10-05T23:08:31.555Z,101387.81
2022-10-05T23:11:01.832Z,101381.50
2022-10-05T23:13:28.305Z,101402.44
2022-10-05T23:15:54.786Z,101392.41
2022-10-05T23:18:21.211Z,101391.41
2022-10-05T23:20:54.262Z,101388.34
2022-10-05T23:23:20.892Z,101403.66
2022-10-05T23:25:47.304Z,101404.19
2022-10-05T23:28:13.740Z,101401.16
2022-10-05T23:30:40.227Z,101400.81
2022-10-05T23:33:06.688Z,101401.50
2022-10-05T23:35:33.129Z,101403.19
2022-10-05T23:38:00.984Z,101411.03
2022-10-05T23:40:27.548Z,101408.88
2022-10-05T23:42:53.961Z,101405.81
2022-10-05T23:45:20.386Z,101411.91
2022-10-05T23:47:46.837Z,101418.06
2022-10-05T23:50:13.304Z,101417.91
2022-10-05T23:52:39.708Z,101421.31
2022-10-05T23:55:08.280Z,101420.31
2022-10-05T23:57:34.869Z,101429.34
